createdAt,value
2023-04-07T00:00:27.117Z,101339.00
2023-04-07T00:02:54.170Z,101342.88
2023-04-07T00:05:20.976Z,101347.56
2023-04-07T00:07:56.009Z,101349.81
2023-04-07T00:10:23.981Z,101350.09
2023-04-07T00:12:50.610Z,101345.38
2023-04-07T00:15:17.354Z,101348.19
2023-04-07T00:17:44.092Z,101344.56
2023-04-07T00:20:11.423Z,101341.94
2023-04-07T00:22:38.112Z,101345.59
2023-04-07T00:25:05.456Z,101344.25
2023-04-07T00:27:32.147Z,101344.25
2023-04-07T00:29:58.855Z,101346.13
2023-04-07T00:32:25.776Z,101350.41
2023-04-07T00:34:52.460Z,101345.00
2023-04-07T00:37:19.573Z,101350.00
2023-04-07T00:39:46.838Z,101346.75
2023-04-07T00:42:13.662Z,101344.09
2023-04-07T00:44:40.597Z,101332.75
2023-04-07T00:47:07.312Z,101339.19
2023-04-07T00:49:34.161Z,101334.00
2023-04-07T00:52:01.551Z,101336.25
2023-04-07T00:54:30.849Z,101334.91
2023-04-07T00:56:58.275Z,101333.81
2023-04-07T00:59:25.855Z,101334.91
2023-04-07T01:02:08.519Z,101336.88
2023-04-07T01:04:54.721Z,101338.31
2023-04-07T01:07:51.390Z,101339.09
2023-04-07T01:10:50.410Z,101337.47
2023-04-07T01:13:28.805Z,101337.06
2023-04-07T01:15:58.488Z,101344.63
2023-04-07T01:18:31.693Z,101338.91
2023-04-07T01:21:06.061Z,101335.31
2023-04-07T01:23:49.678Z,101334.00
2023-04-07T01:26:21.738Z,101336.53
2023-04-07T01:29:03.389Z,101334.41
2023-04-07T01:31:30.687Z,101334.19
2023-04-07T01:34:00.640Z,101329.91
2023-04-07T01:36:31.749Z,101326.34
2023-04-07T01:38:59.570Z,101327.06
2023-04-07T01:41:27.212Z,101335.13
2023-04-07T01:43:55.531Z,101323.38
2023-04-07T01:46:22.466Z,101316.03
2023-04-07T01:48:50.414Z,101325.41
2023-04-07T01:51:19.047Z,101333.94
2023-04-07T01:53:46.636Z,101338.66
2023-04-07T01:56:13.378Z,101340.03
2023-04-07T01:58:40.043Z,101343.72
2023-04-07T02:01:06.958Z,101330.06
2023-04-07T02:04:04.537Z,101333.72
2023-04-07T02:06:35.564Z,101332.69
2023-04-07T02:09:08.107Z,101330.25
2023-04-07T02:11:37.453Z,101321.47
2023-04-07T02:14:07.133Z,101317.91
2023-04-07T02:16:35.651Z,101318.00
2023-04-07T02:19:03.707Z,101321.84
2023-04-07T02:21:32.115Z,101328.78
2023-04-07T02:24:07.191Z,101327.75
2023-04-07T02:26:36.187Z,101329.19
2023-04-07T02:29:04.460Z,101323.69
2023-04-07T02:31:31.580Z,101323.38
2023-04-07T02:33:58.201Z,101331.97
2023-04-07T02:36:24.964Z,101328.19
2023-04-07T02:38:51.659Z,101322.16
2023-04-07T02:41:18.464Z,101315.84
2023-04-07T02:43:45.061Z,101328.50
2023-04-07T02:46:11.786Z,101332.44
2023-04-07T02:48:38.484Z,101324.53
2023-04-07T02:51:05.401Z,101322.94
2023-04-07T02:53:32.099Z,101321.00
2023-04-07T02:55:58.988Z,101330.63
2023-04-07T02:58:25.753Z,101323.53
2023-04-07T03:00:52.644Z,101317.22
2023-04-07T03:03:19.566Z,101319.44
2023-04-07T03:05:46.328Z,101321.06
2023-04-07T03:08:13.268Z,101319.44
2023-04-07T03:10:40.042Z,101321.69
2023-04-07T03:13:08.406Z,101319.13
2023-04-07T03:15:35.119Z,101323.53
2023-04-07T03:18:01.824Z,101314.22
2023-04-07T03:20:28.506Z,101320.34
2023-04-07T03:22:55.456Z,101317.38
2023-04-07T03:25:22.348Z,101316.53
2023-04-07T03:27:49.118Z,101323.16
2023-04-07T03:30:16.285Z,101323.44
2023-04-07T03:32:42.999Z,101318.56
2023-04-07T03:35:10.264Z,101314.47
2023-04-07T03:37:36.999Z,101321.59
2023-04-07T03:40:03.821Z,101315.56
2023-04-07T03:42:30.687Z,101326.56
2023-04-07T03:44:57.592Z,101318.31
2023-04-07T03:47:24.302Z,101323.03
2023-04-07T03:49:51.128Z,101326.56
2023-04-07T03:52:18.096Z,101318.31
2023-04-07T03:54:45.955Z,101322.19
2023-04-07T03:57:12.718Z,101317.22
2023-04-07T03:59:39.493Z,101314.47
2023-04-07T04:02:06.437Z,101316.72
2023-04-07T04:04:33.241Z,101315.06
2023-04-07T04:06:59.887Z,101311.81
2023-04-07T04:09:26.528Z,101315.66
2023-04-07T04:11:53.196Z,101313.22
2023-04-07T04:14:19.880Z,101312.41
2023-04-07T04:16:46.552Z,101315.66
2023-04-07T04:19:13.275Z,101312.41
2023-04-07T04:21:40.034Z,101318.47
2023-04-07T04:24:06.798Z,101314.69
2023-04-07T04:26:33.741Z,101307.56
2023-04-07T04:29:00.476Z,101314.97
2023-04-07T04:31:27.232Z,101313.38
2023-04-07T04:33:54.164Z,101314.97
2023-04-07T04:36:21.279Z,101306.47
2023-04-07T04:38:47.992Z,101311.66
2023-04-07T04:41:15.511Z,101312.16
2023-04-07T04:43:42.585Z,101318.28
2023-04-07T04:46:09.288Z,101310.81
2023-04-07T04:48:36.075Z,101312.47
2023-04-07T04:51:02.921Z,101316.03
2023-04-07T04:53:29.681Z,101320.72
2023-04-07T04:55:56.573Z,101312.47
2023-04-07T04:58:23.284Z,101315.22
2023-04-07T05:00:49.979Z,101315.22
2023-04-07T05:03:17.154Z,101314.41
2023-04-07T05:05:48.512Z,101313.66
2023-04-07T05:08:15.159Z,101307.13
2023-04-07T05:10:41.899Z,101314.84
2023-04-07T05:13:08.605Z,101318.19
2023-04-07T05:15:35.301Z,101320.41
2023-04-07T05:18:02.021Z,101321.44
2023-04-07T05:20:28.768Z,101322.03
2023-04-07T05:22:55.425Z,101325.66
2023-04-07T05:25:22.113Z,101318.84
2023-04-07T05:27:48.802Z,101323.28
2023-04-07T05:30:16.164Z,101316.16
2023-04-07T05:32:42.891Z,101322.75
2023-04-07T05:35:09.980Z,101323.56
2023-04-07T05:37:36.654Z,101333.97
2023-04-07T05:40:03.446Z,101332.56
2023-04-07T05:42:30.114Z,101334.19
2023-04-07T05:44:56.853Z,101331.75
2023-04-07T05:47:23.637Z,101336.41
2023-04-07T05:49:50.365Z,101335.81
2023-04-07T05:52:17.058Z,101332.84
2023-04-07T05:54:43.918Z,101341.63
2023-04-07T05:57:10.697Z,101338.88
2023-04-07T05:59:37.553Z,101341.31
2023-04-07T06:02:05.001Z,101337.47
2023-04-07T06:04:32.932Z,101336.88
2023-04-07T06:06:59.707Z,101335.47
2023-04-07T06:09:26.730Z,101344.44
2023-04-07T06:11:53.563Z,101334.50
2023-04-07T06:14:20.871Z,101341.25
2023-04-07T06:16:47.558Z,101341.19
2023-04-07T06:19:14.306Z,101344.69
2023-04-07T06:21:41.191Z,101348.47
2023-04-07T06:24:08.078Z,101341.78
2023-04-07T06:26:34.801Z,101347.50
2023-04-07T06:29:02.632Z,101343.84
2023-04-07T06:31:29.287Z,101350.41
2023-04-07T06:33:56.051Z,101356.00
2023-04-07T06:36:23.663Z,101347.13
2023-04-07T06:38:51.066Z,101346.25
2023-04-07T06:41:17.749Z,101346.69
2023-04-07T06:43:47.686Z,101345.50
2023-04-07T06:46:14.594Z,101350.31
2023-04-07T06:48:41.549Z,101353.78
2023-04-07T06:51:08.383Z,101347.38
2023-04-07T06:53:35.272Z,101353.88
2023-04-07T06:56:10.609Z,101346.38
2023-04-07T06:58:38.257Z,101353.72
2023-04-07T07:01:06.447Z,101354.75
2023-04-07T07:03:34.014Z,101355.78
2023-04-07T07:06:01.712Z,101348.88
2023-04-07T07:08:29.298Z,101350.19
2023-04-07T07:10:56.402Z,101352.31
2023-04-07T07:13:25.367Z,101357.75
2023-04-07T07:15:52.334Z,101366.69
2023-04-07T07:18:19.489Z,101359.78
2023-04-07T07:20:46.213Z,101366.31
2023-04-07T07:23:13.095Z,101359.69
2023-04-07T07:25:40.253Z,101362.34
2023-04-07T07:28:06.949Z,101374.38
2023-04-07T07:30:33.630Z,101375.09
2023-04-07T07:33:01.466Z,101367.53
2023-04-07T07:35:28.265Z,101367.44
2023-04-07T07:37:54.909Z,101359.09
2023-04-07T07:40:21.789Z,101364.19
2023-04-07T07:42:48.505Z,101369.28
2023-04-07T07:45:17.655Z,101361.09
2023-04-07T07:47:44.496Z,101371.09
2023-04-07T07:50:11.432Z,101367.81
2023-04-07T07:52:38.134Z,101373.91
2023-04-07T07:55:05.187Z,101367.88
2023-04-07T07:57:32.057Z,101365.38
2023-04-07T07:59:58.802Z,101360.44
2023-04-07T08:02:30.948Z,101366.19
2023-04-07T08:04:57.850Z,101378.63
2023-04-07T08:07:24.841Z,101363.44
2023-04-07T08:09:51.508Z,101368.09
2023-04-07T08:12:18.245Z,101374.03
2023-04-07T08:14:45.022Z,101360.16
2023-04-07T08:17:12.577Z,101364.56
2023-04-07T08:19:39.389Z,101354.06
2023-04-07T08:22:06.310Z,101363.69
2023-04-07T08:24:33.069Z,101362.28
2023-04-07T08:27:00.065Z,101358.09
2023-04-07T08:29:28.242Z,101363.00
2023-04-07T08:31:55.618Z,101374.44
2023-04-07T08:34:22.468Z,101364.03
2023-04-07T08:36:49.208Z,101369.56
2023-04-07T08:39:15.902Z,101369.56
2023-04-07T08:41:44.733Z,101367.31
2023-04-07T08:44:11.635Z,101368.25
2023-04-07T08:46:39.786Z,101369.50
2023-04-07T08:49:13.869Z,101375.78
2023-04-07T08:51:49.145Z,101366.53
2023-04-07T08:54:19.044Z,101366.78
2023-04-07T08:56:46.087Z,101372.66
2023-04-07T08:59:15.795Z,101368.75
2023-04-07T09:01:42.654Z,101373.31
2023-04-07T09:04:10.761Z,101385.50
2023-04-07T09:06:38.304Z,101372.00
2023-04-07T09:09:08.560Z,101383.50
2023-04-07T09:11:40.110Z,101377.97
2023-04-07T09:14:07.778Z,101377.34
2023-04-07T09:16:37.821Z,101376.25
2023-04-07T09:19:04.660Z,101383.13
2023-04-07T09:21:51.553Z,101386.34
2023-04-07T09:24:26.395Z,101385.72
2023-04-07T09:27:15.217Z,101379.47
2023-04-07T09:29:44.761Z,101384.94
2023-04-07T09:32:13.469Z,101391.97
2023-04-07T09:34:41.616Z,101393.09
2023-04-07T09:37:09.667Z,101387.50
2023-04-07T09:39:53.836Z,101384.66
2023-04-07T09:42:21.599Z,101389.78
2023-04-07T09:44:49.128Z,101379.88
2023-04-07T09:47:16.046Z,101388.38
2023-04-07T09:49:54.907Z,101387.50
2023-04-07T09:52:47.230Z,101384.56
2023-04-07T09:55:16.106Z,101381.50
2023-04-07T09:57:44.819Z,101381.81
2023-04-07T10:00:11.942Z,101389.28
2023-04-07T10:02:39.048Z,101381.34
2023-04-07T10:05:06.447Z,101382.72
2023-04-07T10:07:33.206Z,101381.09
2023-04-07T10:09:59.860Z,101389.53
2023-04-07T10:12:28.129Z,101384.19
2023-04-07T10:14:55.522Z,101379.78
2023-04-07T10:17:22.731Z,101386.25
2023-04-07T10:19:50.810Z,101380.44
2023-04-07T10:22:19.027Z,101379.53
2023-04-07T10:25:00.582Z,101371.28
2023-04-07T10:27:38.935Z,101384.94
2023-04-07T10:30:13.799Z,101373.34
2023-04-07T10:32:51.882Z,101380.69
2023-04-07T10:35:18.842Z,101381.13
2023-04-07T10:38:16.542Z,101378.47
2023-04-07T10:40:43.660Z,101381.72
2023-04-07T10:43:15.104Z,101386.25
2023-04-07T10:45:54.511Z,101385.53
2023-04-07T10:48:21.998Z,101378.75
2023-04-07T10:51:14.389Z,101375.72
2023-04-07T10:54:26.781Z,101375.81
2023-04-07T10:57:03.525Z,101373.09
2023-04-07T10:59:30.905Z,101364.75
2023-04-07T11:02:17.538Z,101363.88
2023-04-07T11:04:47.039Z,101370.69
2023-04-07T11:07:16.097Z,101354.47
2023-04-07T11:09:43.403Z,101355.53
2023-04-07T11:12:22.620Z,101368.16
2023-04-07T11:14:49.341Z,101363.28
2023-04-07T11:17:17.585Z,101363.09
2023-04-07T11:19:54.465Z,101359.75
2023-04-07T11:24:50.708Z,101359.69
2023-04-07T11:27:17.504Z,101357.66
2023-04-07T11:29:44.457Z,101351.56
2023-04-07T11:32:11.280Z,101357.47
2023-04-07T11:34:38.072Z,101349.16
2023-04-07T11:37:21.510Z,101349.72
2023-04-07T11:39:58.919Z,101357.00
2023-04-07T11:42:52.439Z,101342.88
2023-04-07T11:45:20.826Z,101349.44
2023-04-07T11:47:47.895Z,101352.94
2023-04-07T11:50:14.636Z,101351.44
2023-04-07T11:52:48.694Z,101341.22
2023-04-07T11:55:22.402Z,101341.94
2023-04-07T11:57:54.207Z,101346.31
2023-04-07T12:00:21.244Z,101343.69
2023-04-07T12:02:48.197Z,101351.44
2023-04-07T12:05:15.139Z,101349.81
2023-04-07T12:07:53.558Z,101348.06
2023-04-07T12:10:21.136Z,101350.66
2023-04-07T12:12:49.044Z,101342.41
2023-04-07T12:15:16.049Z,101344.25
2023-04-07T12:17:49.058Z,101343.31
2023-04-07T12:20:16.579Z,101347.69
2023-04-07T12:22:43.358Z,101344.88
2023-04-07T12:25:10.220Z,101343.66
2023-04-07T12:27:43.382Z,101347.47
2023-04-07T12:30:11.582Z,101341.75
2023-04-07T12:32:38.642Z,101354.94
2023-04-07T12:35:06.569Z,101344.53
2023-04-07T12:37:33.813Z,101346.84
2023-04-07T12:40:00.682Z,101349.13
2023-04-07T12:42:28.088Z,101340.75
2023-04-07T12:44:54.930Z,101340.75
2023-04-07T12:47:22.251Z,101343.72
2023-04-07T12:49:50.089Z,101350.25
2023-04-07T12:52:17.148Z,101335.56
2023-04-07T12:54:45.527Z,101333.19
2023-04-07T12:57:12.478Z,101334.84
2023-04-07T12:59:39.200Z,101330.50
2023-04-07T13:02:06.285Z,101340.88
2023-04-07T13:04:33.315Z,101339.41
2023-04-07T13:07:02.810Z,101332.22
2023-04-07T13:09:29.576Z,101337.59
2023-04-07T13:11:57.779Z,101333.06
2023-04-07T13:14:24.587Z,101336.63
2023-04-07T13:16:51.327Z,101331.28
2023-04-07T13:19:18.306Z,101322.91
2023-04-07T13:21:47.364Z,101333.50
2023-04-07T13:24:15.125Z,101329.25
2023-04-07T13:26:41.787Z,101329.63
2023-04-07T13:29:08.480Z,101321.09
2023-04-07T13:31:35.389Z,101323.81
2023-04-07T13:34:02.860Z,101323.41
2023-04-07T13:36:30.065Z,101323.13
2023-04-07T13:38:57.079Z,101318.38
2023-04-07T13:41:23.906Z,101320.34
2023-04-07T13:43:51.015Z,101319.56
2023-04-07T13:46:28.002Z,101319.56
2023-04-07T13:48:56.298Z,101316.41
2023-04-07T13:51:23.141Z,101317.69
2023-04-07T13:53:50.012Z,101307.72
2023-04-07T13:56:17.101Z,101306.47
2023-04-07T13:58:44.053Z,101312.75
2023-04-07T14:01:12.858Z,101317.06
2023-04-07T14:03:39.613Z,101311.38
2023-04-07T14:06:06.354Z,101309.03
2023-04-07T14:08:33.143Z,101300.34
2023-04-07T14:10:59.824Z,101301.59
2023-04-07T14:13:26.473Z,101304.44
2023-04-07T14:15:54.040Z,101313.56
2023-04-07T14:18:21.051Z,101301.59
2023-04-07T14:20:54.916Z,101300.94
2023-04-07T14:23:33.909Z,101299.31
2023-04-07T14:26:03.156Z,101302.69
2023-04-07T14:28:29.871Z,101296.66
2023-04-07T14:30:56.745Z,101299.06
2023-04-07T14:33:23.622Z,101289.47
2023-04-07T14:35:50.343Z,101300.63
2023-04-07T14:38:17.016Z,101284.47
2023-04-07T14:40:45.216Z,101285.72
2023-04-07T14:43:12.317Z,101295.13
2023-04-07T14:45:39.032Z,101290.88
2023-04-07T14:48:06.100Z,101286.31
2023-04-07T14:50:33.871Z,101293.63
2023-04-07T14:53:01.521Z,101286.69
2023-04-07T14:55:28.252Z,101287.91
2023-04-07T14:57:54.950Z,101289.81
2023-04-07T15:00:21.831Z,101287.56
2023-04-07T15:02:50.933Z,101283.69
2023-04-07T15:05:17.749Z,101284.09
2023-04-07T15:07:45.957Z,101298.66
2023-04-07T15:10:12.604Z,101285.66
2023-04-07T15:12:39.262Z,101287.19
2023-04-07T15:15:06.486Z,101284.56
2023-04-07T15:17:43.305Z,101283.16
2023-04-07T15:20:13.110Z,101271.97
2023-04-07T15:22:40.347Z,101273.75
2023-04-07T15:25:07.990Z,101284.66
2023-04-07T15:27:34.636Z,101279.50
2023-04-07T15:30:01.275Z,101277.75
2023-04-07T15:32:31.094Z,101268.31
2023-04-07T15:34:57.828Z,101278.03
2023-04-07T15:37:25.363Z,101278.75
2023-04-07T15:39:52.372Z,101273.81
2023-04-07T15:42:19.039Z,101271.19
2023-04-07T15:44:45.719Z,101271.50
2023-04-07T15:47:12.592Z,101275.88
2023-04-07T15:49:39.331Z,101277.84
2023-04-07T15:52:06.312Z,101279.94
2023-04-07T15:54:33.490Z,101287.00
2023-04-07T15:57:00.315Z,101280.50
2023-04-07T15:59:29.391Z,101277.59
2023-04-07T16:01:56.188Z,101280.66
2023-04-07T16:04:22.961Z,101271.75
2023-04-07T16:06:49.683Z,101270.22
2023-04-07T16:09:17.469Z,101275.06
2023-04-07T16:11:44.088Z,101271.25
2023-04-07T16:14:10.735Z,101286.09
2023-04-07T16:16:40.862Z,101276.31
2023-04-07T16:19:07.831Z,101267.63
2023-04-07T16:21:34.688Z,101276.50
2023-04-07T16:24:01.735Z,101272.41
2023-04-07T16:26:28.377Z,101272.41
2023-04-07T16:28:55.022Z,101275.72
2023-04-07T16:31:21.650Z,101270.19
2023-04-07T16:33:50.915Z,101275.09
2023-04-07T16:36:17.683Z,101276.78
2023-04-07T16:38:44.486Z,101280.31
2023-04-07T16:41:11.712Z,101275.78
2023-04-07T16:43:38.885Z,101286.06
2023-04-07T16:46:06.312Z,101276.81
2023-04-07T16:48:33.178Z,101276.38
2023-04-07T16:50:59.950Z,101287.69
2023-04-07T16:53:26.749Z,101286.41
2023-04-07T16:55:53.495Z,101282.72
2023-04-07T16:58:20.256Z,101288.69
2023-04-07T17:00:46.910Z,101285.44
2023-04-07T17:03:15.164Z,101290.56
2023-04-07T17:05:44.540Z,101286.53
2023-04-07T17:08:11.689Z,101278.75
2023-04-07T17:10:38.650Z,101284.94
2023-04-07T17:13:05.527Z,101290.28
2023-04-07T17:15:36.215Z,101286.84
2023-04-07T17:18:02.995Z,101291.22
2023-04-07T17:20:29.729Z,101288.31
2023-04-07T17:22:56.459Z,101293.38
2023-04-07T17:25:24.875Z,101294.03
2023-04-07T17:27:51.515Z,101297.19
2023-04-07T17:30:18.360Z,101295.38
2023-04-07T17:32:45.025Z,101298.88
2023-04-07T17:35:11.711Z,101303.28
2023-04-07T17:37:38.477Z,101296.94
2023-04-07T17:40:05.854Z,101304.88
2023-04-07T17:42:33.068Z,101302.94
2023-04-07T17:44:59.938Z,101304.78
2023-04-07T17:47:26.728Z,101308.19
2023-04-07T17:49:53.357Z,101308.81
2023-04-07T17:52:20.295Z,101313.91
2023-04-07T17:54:47.164Z,101312.31
2023-04-07T17:57:14.584Z,101321.53
2023-04-07T17:59:41.497Z,101315.41
2023-04-07T18:02:11.045Z,101322.38
2023-04-07T18:04:38.084Z,101321.66
2023-04-07T18:07:05.053Z,101319.09
2023-04-07T18:09:32.581Z,101324.53
2023-04-07T18:12:01.600Z,101328.91
2023-04-07T18:14:28.853Z,101327.53
2023-04-07T18:16:56.113Z,101334.81
2023-04-07T18:19:23.071Z,101337.00
2023-04-07T18:21:52.905Z,101342.97
2023-04-07T18:24:20.720Z,101340.16
2023-04-07T18:26:47.892Z,101349.84
2023-04-07T18:29:15.036Z,101346.81
2023-04-07T18:31:44.996Z,101352.09
2023-04-07T18:34:11.897Z,101351.16
2023-04-07T18:36:43.405Z,101347.66
2023-04-07T18:39:10.413Z,101346.53
2023-04-07T18:41:37.145Z,101348.41
2023-04-07T18:44:03.787Z,101350.91
2023-04-07T18:46:30.508Z,101350.44
2023-04-07T18:48:57.231Z,101358.97
2023-04-07T18:51:23.843Z,101358.69
2023-04-07T18:53:50.691Z,101374.38
2023-04-07T18:56:18.020Z,101368.06
2023-04-07T18:58:45.873Z,101364.34
2023-04-07T19:01:15.909Z,101364.84
2023-04-07T19:03:42.933Z,101367.81
2023-04-07T19:06:09.890Z,101377.13
2023-04-07T19:08:36.914Z,101379.59
2023-04-07T19:11:03.839Z,101378.19
2023-04-07T19:13:30.730Z,101379.31
2023-04-07T19:15:57.992Z,101385.19
2023-04-07T19:18:25.321Z,101382.09
2023-04-07T19:20:52.159Z,101381.47
2023-04-07T19:23:18.959Z,101383.78
2023-04-07T19:25:46.153Z,101389.97
2023-04-07T19:28:13.336Z,101392.09
2023-04-07T19:30:40.105Z,101398.97
2023-04-07T19:33:06.870Z,101404.34
2023-04-07T19:35:33.933Z,101401.09
2023-04-07T19:38:00.673Z,101403.06
2023-04-07T19:40:27.516Z,101401.78
2023-04-07T19:42:56.474Z,101403.25
2023-04-07T19:45:23.163Z,101414.50
2023-04-07T19:47:50.263Z,101416.31
2023-04-07T19:50:17.561Z,101422.50
2023-04-07T19:52:45.951Z,101410.94
2023-04-07T19:55:13.609Z,101419.72
2023-04-07T19:57:40.538Z,101420.38
2023-04-07T20:00:09.056Z,101423.78
2023-04-07T20:02:36.893Z,101425.59
2023-04-07T20:05:04.178Z,101430.13
2023-04-07T20:07:32.025Z,101430.13
2023-04-07T20:10:01.193Z,101435.03
2023-04-07T20:12:28.056Z,101435.97
2023-04-07T20:14:54.732Z,101432.56
2023-04-07T20:17:21.455Z,101432.38
2023-04-07T20:19:48.198Z,101437.75
2023-04-07T20:22:15.621Z,101433.03
2023-04-07T20:24:42.394Z,101436.47
2023-04-07T20:27:09.090Z,101444.75
2023-04-07T20:29:35.915Z,101433.81
2023-04-07T20:32:02.660Z,101434.97
2023-04-07T20:34:29.336Z,101444.41
2023-04-07T20:36:56.615Z,101438.56
2023-04-07T20:39:23.295Z,101438.56
2023-04-07T20:41:49.999Z,101442.44
2023-04-07T20:44:16.765Z,101451.91
2023-04-07T20:46:44.264Z,101443.91
2023-04-07T20:49:10.971Z,101441.13
2023-04-07T20:51:37.643Z,101445.84
2023-04-07T20:54:05.116Z,101442.56
2023-04-07T20:56:31.931Z,101444.03
2023-04-07T20:58:58.957Z,101446.78
2023-04-07T21:01:25.750Z,101446.31
2023-04-07T21:03:53.807Z,101449.91
2023-04-07T21:06:20.889Z,101445.34
2023-04-07T21:08:49.853Z,101440.13
2023-04-07T21:11:17.247Z,101445.78
2023-04-07T21:13:44.155Z,101443.66
2023-04-07T21:16:11.377Z,101445.63
2023-04-07T21:18:38.170Z,101444.63
2023-04-07T21:21:05.045Z,101445.91
2023-04-07T21:23:32.803Z,101441.84
2023-04-07T21:26:03.392Z,101439.41
2023-04-07T21:28:30.350Z,101442.81
2023-04-07T21:30:57.188Z,101442.81
2023-04-07T21:33:24.385Z,101441.81
2023-04-07T21:35:52.718Z,101440.50
2023-04-07T21:38:19.433Z,101443.59
2023-04-07T21:40:47.186Z,101440.97
2023-04-07T21:43:13.830Z,101434.31
2023-04-07T21:45:41.553Z,101442.63
2023-04-07T21:48:08.307Z,101440.16
2023-04-07T21:50:35.171Z,101437.53
2023-04-07T21:53:01.876Z,101445.81
2023-04-07T21:55:28.621Z,101431.81
2023-04-07T21:57:55.364Z,101441.06
2023-04-07T22:00:23.878Z,101442.03
2023-04-07T22:02:51.586Z,101435.19
2023-04-07T22:05:18.648Z,101436.66
2023-04-07T22:07:45.834Z,101438.25
2023-04-07T22:10:13.087Z,101438.91
2023-04-07T22:12:40.389Z,101442.81
2023-04-07T22:15:08.770Z,101445.38
2023-04-07T22:17:35.784Z,101440.19
2023-04-07T22:20:02.764Z,101445.19
2023-04-07T22:22:29.411Z,101447.44
2023-04-07T22:24:56.325Z,101448.59
2023-04-07T22:27:23.013Z,101443.09
2023-04-07T22:29:50.707Z,101453.31
2023-04-07T22:32:17.377Z,101456.88
2023-04-07T22:34:44.952Z,101455.56
2023-04-07T22:37:11.629Z,101456.19
2023-04-07T22:39:38.536Z,101456.00
2023-04-07T22:42:06.277Z,101461.53
2023-04-07T22:44:32.978Z,101463.16
2023-04-07T22:46:59.702Z,101467.06
2023-04-07T22:49:26.489Z,101465.09
2023-04-07T22:51:55.338Z,101466.22
2023-04-07T22:54:21.975Z,101474.84
2023-04-07T22:56:48.612Z,101469.63
2023-04-07T22:59:15.445Z,101462.78
2023-04-07T23:01:42.172Z,101463.94
2023-04-07T23:04:08.912Z,101464.56
2023-04-07T23:06:35.660Z,101472.63
2023-04-07T23:09:02.275Z,101469.38
2023-04-07T23:11:28.933Z,101462.22
2023-04-07T23:13:55.684Z,101468.06
2023-04-07T23:16:23.094Z,101460.59
2023-04-07T23:18:50.096Z,101473.09
2023-04-07T23:21:16.964Z,101470.47
2023-04-07T23:23:43.705Z,101474.13
2023-04-07T23:26:11.417Z,101473.63
2023-04-07T23:28:38.971Z,101476.19
2023-04-07T23:31:06.853Z,101463.56
2023-04-07T23:33:34.013Z,101469.69
2023-04-07T23:36:00.777Z,101473.41
2023-04-07T23:38:27.592Z,101470.94
2023-04-07T23:40:54.260Z,101470.41
2023-04-07T23:43:20.919Z,101469.72
2023-04-07T23:45:47.982Z,101462.88
2023-04-07T23:48:15.574Z,101460.72
2023-04-07T23:50:42.293Z,101455.22
2023-04-07T23:53:09.018Z,101466.56
2023-04-07T23:55:35.828Z,101472.38
2023-04-07T23:58:02.534Z,101480.34
